Franklin, Illinois
Current Conditions -  °F | °C
As of 12:15 PM on Thursday 18 Dec 2014 (Local Time) from KIJX Reporting Station
Light Snow Light Snow  
Wind Chill: 30°   Ceiling: 1100
Heat Index: 30°   Visibility: 5mi
Dew Point: 25°   Wind: 0mph
Humidity: 83%   Direction: NA
Pressure: 30.26"   Gusts: NA
Location:  39.62°N, 90.04°W
Report Text: KIJX 181815Z AUTO 00000KT 5SM -SN BKN011 OVC041 M01/M04 A3026 RMK AO2 P0002 T10121038
Loading
Personal Weather Stations






























Interactive Weather Map New forecast layout! Learn more

10-Day Weather Forecast

Advertisements
Track Severe Weather on mobile